Time;durP1;ratioP1;P1;durP2;ratioP2;P2;SDS_P1;SDS_P2;PMS_P1;PMS_P2;Temp;Humidity;BMP_temperature;BMP_pressure;BME280_temperature;BME280_humidity;BME280_pressure;Samples;Min_cycle;Max_cycle;Signal;HPM_P1;HPM_P2
2021/04/26 00:01:07;;;;;;;6.00;2.70;;;-1.40;99.90;;;;;;4443117;28;656185;-66
2021/04/26 00:03:54;;;;;;;8.77;2.53;;;-1.40;99.90;;;;;;4424791;28;657345;-66
2021/04/26 00:06:41;;;;;;;7.23;2.40;;;-1.50;99.90;;;;;;4432886;28;656666;-66
2021/04/26 00:09:28;;;;;;;6.57;2.50;;;-1.50;99.90;;;;;;4413506;28;656687;-66
2021/04/26 00:12:15;;;;;;;7.07;2.80;;;-1.50;99.90;;;;;;4430042;28;656395;-66
2021/04/26 00:15:02;;;;;;;7.90;2.90;;;-1.50;99.90;;;;;;4442056;28;656069;-67
2021/04/26 00:17:50;;;;;;;5.97;2.70;;;-1.60;99.90;;;;;;4450991;28;656493;-65
2021/04/26 00:20:37;;;;;;;5.28;2.50;;;-1.50;99.90;;;;;;4424389;28;656658;-66
2021/04/26 00:23:24;;;;;;;7.60;2.77;;;-1.50;99.90;;;;;;4432305;28;656498;-68
2021/04/26 00:26:11;;;;;;;5.90;2.93;;;-1.50;99.90;;;;;;4426037;28;656685;-66
2021/04/26 00:28:58;;;;;;;8.77;2.70;;;-1.60;99.90;;;;;;4404821;28;656733;-66
2021/04/26 00:31:45;;;;;;;6.75;2.95;;;-1.60;99.90;;;;;;4433850;28;657664;-66
2021/04/26 00:34:33;;;;;;;9.27;2.88;;;-1.60;99.90;;;;;;4409123;28;656371;-67
2021/04/26 00:37:20;;;;;;;7.60;2.47;;;-1.50;99.90;;;;;;4441416;28;656837;-66
2021/04/26 00:40:08;;;;;;;9.52;2.78;;;-1.50;99.90;;;;;;4425530;28;656751;-67
2021/04/26 00:42:55;;;;;;;6.32;2.55;;;-1.40;99.90;;;;;;4427008;28;658058;-66
2021/04/26 00:45:42;;;;;;;5.75;2.78;;;-1.40;99.90;;;;;;4406707;28;657160;-68
2021/04/26 00:48:29;;;;;;;9.00;3.10;;;-1.30;99.90;;;;;;4442411;28;656879;-66
2021/04/26 00:51:17;;;;;;;9.03;3.23;;;-1.20;99.90;;;;;;4424701;28;656882;-66
2021/04/26 00:54:05;;;;;;;10.60;2.93;;;-1.20;99.90;;;;;;4404584;28;657024;-66
2021/04/26 00:56:52;;;;;;;9.27;2.90;;;-1.10;99.90;;;;;;4427528;28;657579;-68
2021/04/26 00:59:39;;;;;;;7.47;3.40;;;-1.10;99.90;;;;;;4433398;28;656223;-66
2021/04/26 01:02:26;;;;;;;13.85;4.20;;;-1.00;99.90;;;;;;4433414;28;656814;-66
2021/04/26 01:05:15;;;;;;;12.25;3.90;;;-1.00;99.90;;;;;;4427303;28;657677;-66
2021/04/26 01:08:04;;;;;;;13.63;5.10;;;-1.00;99.90;;;;;;4443714;28;657728;-68
2021/04/26 01:10:51;;;;;;;19.20;6.70;;;-1.00;99.90;;;;;;4450064;28;658417;-66
2021/04/26 01:13:49;;;;;;;20.13;8.03;;;-1.00;99.90;;;;;;4427521;28;657587;-66
2021/04/26 01:16:38;;;;;;;15.90;6.53;;;-1.00;99.90;;;;;;4421145;28;657802;-66
2021/04/26 01:19:56;;;;;;;11.83;4.10;;;-1.00;99.90;;;;;;4417237;28;658825;-66
2021/04/26 01:23:08;;;;;;;12.47;4.93;;;-1.00;99.90;;;;;;4399514;28;658056;-66
2021/04/26 01:25:55;;;;;;;16.07;5.23;;;-1.00;99.90;;;;;;4422987;28;657853;-66
2021/04/26 01:28:46;;;;;;;18.33;5.90;;;-1.10;99.90;;;;;;4442348;28;657407;-66
2021/04/26 01:31:39;;;;;;;20.43;6.50;;;-1.10;99.90;;;;;;4422585;28;657904;-66
2021/04/26 01:34:28;;;;;;;18.97;5.07;;;-1.10;99.90;;;;;;4415067;28;657789;-66
2021/04/26 01:37:15;;;;;;;18.83;6.20;;;-1.10;99.90;;;;;;4422080;28;658114;-66
2021/04/26 01:40:03;;;;;;;18.43;6.50;;;-1.10;99.90;;;;;;4437029;28;657826;-68
2021/04/26 01:42:53;;;;;;;19.17;5.87;;;-1.10;99.90;;;;;;4446196;28;658397;-66
2021/04/26 01:45:40;;;;;;;15.53;5.80;;;-1.10;99.90;;;;;;4415039;28;658363;-66
2021/04/26 01:48:28;;;;;;;17.58;6.30;;;-1.10;99.90;;;;;;4431749;28;657817;-68
2021/04/26 01:51:16;;;;;;;20.13;6.93;;;-1.10;99.90;;;;;;4448921;28;658112;-66
2021/04/26 01:54:03;;;;;;;20.10;7.00;;;-1.20;99.90;;;;;;4421102;28;657841;-66
2021/04/26 01:56:50;;;;;;;20.03;6.73;;;-1.20;99.90;;;;;;4445525;28;658452;-66
2021/04/26 01:59:37;;;;;;;24.13;7.73;;;-1.20;99.90;;;;;;4441961;28;657841;-68
2021/04/26 02:02:24;;;;;;;15.53;7.10;;;-1.30;99.90;;;;;;4441636;28;658995;-66
2021/04/26 02:05:12;;;;;;;19.00;7.17;;;-1.30;99.90;;;;;;4435280;28;658242;-66
2021/04/26 02:08:00;;;;;;;23.23;7.50;;;-1.30;99.90;;;;;;4414265;28;658624;-66
2021/04/26 02:10:47;;;;;;;23.20;7.87;;;-1.40;99.90;;;;;;4447544;28;658088;-67
2021/04/26 02:13:34;;;;;;;24.13;8.55;;;-1.40;99.90;;;;;;4446626;28;658034;-66
2021/04/26 02:16:21;;;;;;;21.17;8.40;;;-1.40;99.90;;;;;;4446878;28;657480;-66
2021/04/26 02:19:08;;;;;;;22.77;8.77;;;-1.40;99.90;;;;;;4423815;28;657603;-66
2021/04/26 02:21:55;;;;;;;27.23;8.67;;;-1.40;99.90;;;;;;4448745;28;657801;-66
2021/04/26 02:24:43;;;;;;;32.10;9.63;;;-1.40;99.90;;;;;;4428564;28;657540;-67
2021/04/26 02:27:30;;;;;;;28.70;9.33;;;-1.40;99.90;;;;;;4441214;28;658512;-66
2021/04/26 02:30:18;;;;;;;30.40;9.70;;;-1.50;99.90;;;;;;4420067;28;657208;-67
2021/04/26 02:33:08;;;;;;;30.97;9.93;;;-1.50;99.90;;;;;;4452280;28;658326;-66
2021/04/26 02:35:56;;;;;;;26.97;9.57;;;-1.50;99.90;;;;;;4423642;28;658152;-67
2021/04/26 02:38:47;;;;;;;26.83;10.37;;;-1.50;99.90;;;;;;4430233;28;658113;-66
2021/04/26 02:41:36;;;;;;;29.13;10.63;;;-1.50;99.90;;;;;;4428388;28;659222;-66
2021/04/26 02:44:25;;;;;;;25.07;10.30;;;-1.50;99.90;;;;;;4420136;28;658301;-66
2021/04/26 02:47:16;;;;;;;34.37;11.27;;;-1.50;99.90;;;;;;4438966;28;658514;-68
2021/04/26 02:50:05;;;;;;;32.60;11.70;;;-1.50;99.90;;;;;;4428189;28;658566;-66
2021/04/26 02:52:52;;;;;;;32.13;11.77;;;-1.40;99.90;;;;;;4432669;28;659052;-67
2021/04/26 02:55:40;;;;;;;31.25;11.00;;;-1.40;99.90;;;;;;4450614;28;659154;-66
2021/04/26 02:58:28;;;;;;;35.97;11.23;;;-1.40;99.90;;;;;;4432904;28;658840;-67
2021/04/26 03:01:15;;;;;;;33.63;12.40;;;-1.40;99.90;;;;;;4447259;28;659843;-66
2021/04/26 03:04:04;;;;;;;28.13;10.90;;;-1.40;99.90;;;;;;4419971;28;660638;-67
2021/04/26 03:06:52;;;;;;;34.40;11.63;;;-1.40;99.90;;;;;;4444818;28;658724;-66
2021/04/26 03:09:39;;;;;;;37.97;13.07;;;-1.40;99.90;;;;;;4417127;28;659759;-66
2021/04/26 03:12:26;;;;;;;40.07;13.13;;;-1.40;99.90;;;;;;4446507;28;658964;-66
2021/04/26 03:15:16;;;;;;;39.97;13.97;;;-1.40;99.90;;;;;;4428051;28;658411;-66
2021/04/26 03:18:03;;;;;;;36.10;12.23;;;-1.40;99.90;;;;;;4428985;28;659043;-66
2021/04/26 03:20:50;;;;;;;41.08;14.07;;;-1.40;99.90;;;;;;4449906;28;659036;-67
2021/04/26 03:23:37;;;;;;;34.13;14.27;;;-1.40;99.90;;;;;;4430165;28;658968;-67
2021/04/26 03:26:24;;;;;;;37.77;13.93;;;-1.30;99.90;;;;;;4441901;28;659583;-66
2021/04/26 03:29:12;;;;;;;41.17;14.53;;;-1.30;99.90;;;;;;4445554;28;658419;-66
2021/04/26 03:32:00;;;;;;;32.77;12.47;;;-1.40;99.90;;;;;;4416107;28;659165;-66
2021/04/26 03:34:47;;;;;;;46.57;15.50;;;-1.30;99.90;;;;;;4435675;28;658688;-67
2021/04/26 03:37:34;;;;;;;36.17;14.23;;;-1.40;99.90;;;;;;4451054;28;658876;-66
2021/04/26 03:40:22;;;;;;;45.47;16.20;;;-1.30;99.90;;;;;;4451002;28;658541;-66
2021/04/26 03:43:09;;;;;;;50.10;17.53;;;-1.30;99.90;;;;;;4421789;28;659667;-66
2021/04/26 03:45:57;;;;;;;53.63;19.40;;;-1.30;99.90;;;;;;4438471;28;658594;-66
2021/04/26 03:48:45;;;;;;;53.83;18.87;;;-1.40;99.90;;;;;;4427650;28;658904;-66
2021/04/26 03:51:32;;;;;;;52.20;17.83;;;-1.40;99.90;;;;;;4444083;28;658789;-67
2021/04/26 03:54:19;;;;;;;52.43;18.53;;;-1.40;99.90;;;;;;4450182;28;658992;-66
2021/04/26 03:57:06;;;;;;;52.47;17.57;;;-1.40;99.90;;;;;;4445176;28;658892;-66
2021/04/26 03:59:53;;;;;;;50.50;17.00;;;-1.40;99.90;;;;;;4421801;28;658741;-66
2021/04/26 04:02:40;;;;;;;51.43;16.77;;;-1.40;99.90;;;;;;4446927;28;658844;-66
2021/04/26 04:05:28;;;;;;;52.93;18.40;;;-1.40;99.90;;;;;;4424046;28;658725;-67
2021/04/26 04:08:15;;;;;;;45.40;17.13;;;-1.40;99.90;;;;;;4434941;28;658871;-66
2021/04/26 04:11:02;;;;;;;51.40;16.70;;;-1.30;99.90;;;;;;4429307;28;658817;-68
2021/04/26 04:13:49;;;;;;;45.03;17.17;;;-1.30;99.90;;;;;;4439774;28;658360;-66
2021/04/26 04:16:36;;;;;;;49.30;16.40;;;-1.20;99.90;;;;;;4437084;28;659394;-66
2021/04/26 04:19:23;;;;;;;51.33;18.03;;;-1.20;99.90;;;;;;4426728;28;658635;-66
2021/04/26 04:22:11;;;;;;;44.93;17.00;;;-1.10;99.90;;;;;;4449100;28;659663;-66
2021/04/26 04:24:58;;;;;;;48.77;17.33;;;-1.10;99.90;;;;;;4419476;28;658965;-66
2021/04/26 04:27:45;;;;;;;50.50;18.37;;;-1.00;99.90;;;;;;4441966;28;659024;-66
2021/04/26 04:30:32;;;;;;;54.88;19.83;;;-0.90;99.90;;;;;;4430717;28;659166;-67
2021/04/26 04:33:19;;;;;;;71.33;24.97;;;-0.70;99.90;;;;;;4444426;28;658559;-66
2021/04/26 04:36:07;;;;;;;66.00;25.92;;;-0.60;99.90;;;;;;4445301;28;658632;-66
2021/04/26 04:38:55;;;;;;;56.23;18.50;;;-0.50;99.90;;;;;;4422321;28;659561;-67
2021/04/26 04:41:42;;;;;;;64.53;23.80;;;-0.40;99.90;;;;;;4413242;28;659040;-67
2021/04/26 04:44:29;;;;;;;87.20;33.03;;;-0.40;99.90;;;;;;4448182;28;658753;-66
2021/04/26 04:47:16;;;;;;;77.10;30.83;;;-0.20;99.90;;;;;;4438393;28;659037;-66
2021/04/26 04:50:04;;;;;;;86.47;32.13;;;-0.10;99.90;;;;;;4414434;28;658638;-66
2021/04/26 04:52:51;;;;;;;76.83;29.07;;;0.00;99.90;;;;;;4449157;28;659310;-66
2021/04/26 04:55:39;;;;;;;76.23;31.13;;;0.20;99.90;;;;;;4419231;28;657563;-66
2021/04/26 04:58:26;;;;;;;70.03;25.90;;;0.20;99.90;;;;;;4451482;28;657352;-66
2021/04/26 05:01:13;;;;;;;62.70;23.40;;;0.30;99.90;;;;;;4427566;28;657661;-66
2021/04/26 05:04:00;;;;;;;77.40;30.73;;;0.40;99.90;;;;;;4448900;28;658775;-66
2021/04/26 05:06:47;;;;;;;84.40;33.67;;;0.60;99.90;;;;;;4423881;28;657529;-67
2021/04/26 05:09:34;;;;;;;90.85;36.65;;;0.70;99.90;;;;;;4450827;28;658108;-66
2021/04/26 05:12:22;;;;;;;86.75;37.40;;;0.70;99.90;;;;;;4436559;28;657533;-67
2021/04/26 05:15:10;;;;;;;94.40;37.43;;;0.80;99.90;;;;;;4426233;28;658629;-66
2021/04/26 05:17:57;;;;;;;81.83;32.30;;;0.60;99.90;;;;;;4428456;28;657527;-67
2021/04/26 05:20:44;;;;;;;94.20;38.20;;;0.40;99.90;;;;;;4451556;28;657924;-67
2021/04/26 05:23:32;;;;;;;95.93;38.37;;;0.30;99.90;;;;;;4446578;28;657735;-67
2021/04/26 05:26:19;;;;;;;102.73;36.43;;;0.20;99.90;;;;;;4427202;28;657574;-66
2021/04/26 05:29:07;;;;;;;98.20;37.47;;;0.20;99.90;;;;;;4443399;28;658630;-67
2021/04/26 05:31:55;;;;;;;90.90;35.60;;;0.30;99.90;;;;;;4422744;28;658488;-67
2021/04/26 05:34:43;;;;;;;96.05;34.85;;;0.40;99.90;;;;;;4432659;28;657387;-68
2021/04/26 05:37:30;;;;;;;85.93;35.03;;;0.40;99.90;;;;;;4446638;28;657845;-66
2021/04/26 05:40:16;;;;;;;81.30;33.20;;;0.50;99.90;;;;;;4446162;28;657433;-66
2021/04/26 05:43:04;;;;;;;69.23;27.00;;;0.50;99.90;;;;;;4418676;28;658129;-67
2021/04/26 05:45:52;;;;;;;95.40;36.13;;;0.50;99.90;;;;;;4446591;28;657963;-66
2021/04/26 05:48:39;;;;;;;90.07;35.58;;;0.60;99.90;;;;;;4426578;28;658045;-66
2021/04/26 05:51:26;;;;;;;87.82;32.60;;;0.70;99.90;;;;;;4445164;28;657999;-67
2021/04/26 05:54:13;;;;;;;81.00;35.10;;;0.80;99.90;;;;;;4426676;28;658034;-67
2021/04/26 05:57:00;;;;;;;80.93;33.13;;;0.90;99.90;;;;;;4434582;28;658652;-67
2021/04/26 05:59:47;;;;;;;74.07;31.47;;;1.00;99.90;;;;;;4423299;28;657612;-67
2021/04/26 06:02:36;;;;;;;84.83;29.60;;;1.10;99.90;;;;;;4450789;28;658098;-67
2021/04/26 06:05:23;;;;;;;73.53;30.10;;;1.30;99.90;;;;;;4419171;28;658000;-67
2021/04/26 06:08:10;;;;;;;63.17;26.53;;;1.50;99.90;;;;;;4449854;28;658968;-67
2021/04/26 06:10:57;;;;;;;58.23;24.07;;;1.60;99.90;;;;;;4436535;28;657686;-70
2021/04/26 06:13:44;;;;;;;61.50;24.73;;;1.80;99.90;;;;;;4450462;28;657290;-68
2021/04/26 06:16:31;;;;;;;56.90;23.00;;;2.00;99.90;;;;;;4433487;28;657729;-68
2021/04/26 06:19:19;;;;;;;62.90;24.77;;;2.10;99.90;;;;;;4412423;28;658440;-69
2021/04/26 06:22:06;;;;;;;67.95;23.90;;;2.20;99.90;;;;;;4450574;28;657180;-68
2021/04/26 06:24:53;;;;;;;62.33;24.47;;;2.40;99.90;;;;;;4426269;28;658105;-68
2021/04/26 06:27:40;;;;;;;56.80;23.20;;;2.50;99.90;;;;;;4448548;28;658089;-69
2021/04/26 06:30:27;;;;;;;58.33;22.95;;;2.50;99.90;;;;;;4423097;28;657753;-70
2021/04/26 06:33:17;;;;;;;60.85;19.77;;;2.60;99.90;;;;;;4442898;28;657951;-68
2021/04/26 06:36:05;;;;;;;46.80;19.27;;;2.80;99.90;;;;;;4421515;28;658571;-67
2021/04/26 06:38:52;;;;;;;53.80;19.23;;;3.20;99.90;;;;;;4409801;28;657343;-68
2021/04/26 06:41:39;;;;;;;46.17;18.63;;;3.30;99.90;;;;;;4440527;28;658227;-67
2021/04/26 06:44:27;;;;;;;50.37;17.40;;;3.30;99.90;;;;;;4448988;28;657849;-68
2021/04/26 06:47:14;;;;;;;32.77;12.77;;;3.40;99.90;;;;;;4426776;28;658175;-68
2021/04/26 06:50:01;;;;;;;34.53;13.73;;;3.70;99.90;;;;;;4442018;28;658162;-67
2021/04/26 06:52:49;;;;;;;38.20;12.83;;;3.80;99.90;;;;;;4423518;28;658615;-68
2021/04/26 06:55:36;;;;;;;31.13;11.93;;;3.90;99.90;;;;;;4448357;28;657720;-68
2021/04/26 06:58:23;;;;;;;29.53;12.40;;;3.90;99.90;;;;;;4429204;28;657362;-68
2021/04/26 07:01:10;;;;;;;27.30;9.90;;;4.10;99.90;;;;;;4450888;28;657166;-70
2021/04/26 07:03:57;;;;;;;28.40;11.23;;;4.20;99.90;;;;;;4435634;28;656794;-69
2021/04/26 07:06:44;;;;;;;32.17;12.05;;;4.20;99.90;;;;;;4450249;28;657621;-69
2021/04/26 07:09:32;;;;;;;30.30;10.27;;;4.30;99.90;;;;;;4448529;28;657472;-69
2021/04/26 07:12:19;;;;;;;27.27;10.23;;;4.50;99.90;;;;;;4425170;28;658021;-69
2021/04/26 07:15:07;;;;;;;23.93;8.07;;;4.60;99.90;;;;;;4435527;28;657948;-68
2021/04/26 07:17:54;;;;;;;13.60;6.40;;;4.80;99.90;;;;;;4426605;28;657691;-70
2021/04/26 07:20:41;;;;;;;11.83;4.90;;;5.10;99.90;;;;;;4452953;28;656654;-67
2021/04/26 07:23:28;;;;;;;18.43;4.40;;;5.30;99.90;;;;;;4425908;28;656715;-68
2021/04/26 07:26:16;;;;;;;6.00;2.77;;;5.60;98.90;;;;;;4452666;28;656116;-68
2021/04/26 07:29:03;;;;;;;10.57;2.70;;;5.70;95.00;;;;;;4423078;28;655118;-69
2021/04/26 07:31:50;;;;;;;11.47;3.40;;;5.60;94.00;;;;;;4448523;28;656621;-68
2021/04/26 07:34:37;;;;;;;9.50;3.30;;;5.70;93.30;;;;;;4430766;28;656480;-69
2021/04/26 07:37:25;;;;;;;8.53;3.63;;;5.90;93.00;;;;;;4454642;28;655147;-68
2021/04/26 07:40:14;;;;;;;9.82;2.65;;;6.10;92.00;;;;;;4434669;28;655365;-70
2021/04/26 07:43:02;;;;;;;10.50;2.97;;;6.20;90.10;;;;;;4449359;28;655464;-69
2021/04/26 07:45:49;;;;;;;9.47;3.80;;;6.30;89.20;;;;;;4429887;28;656984;-68
2021/04/26 07:48:38;;;;;;;9.80;3.33;;;6.30;90.50;;;;;;4450421;28;655845;-68
2021/04/26 07:51:25;;;;;;;6.63;2.53;;;6.50;90.70;;;;;;4426032;28;656473;-68
2021/04/26 07:54:12;;;;;;;5.97;2.47;;;6.70;89.20;;;;;;4454478;28;655537;-67
2021/04/26 07:56:59;;;;;;;9.87;3.07;;;6.80;84.00;;;;;;4431044;28;655457;-69
2021/04/26 07:59:47;;;;;;;8.10;2.93;;;6.90;81.40;;;;;;4445546;28;655766;-68
2021/04/26 08:02:34;;;;;;;7.33;2.63;;;6.80;82.80;;;;;;4431145;28;655795;-69
2021/04/26 08:05:21;;;;;;;7.97;2.60;;;6.70;84.90;;;;;;4449298;28;656116;-68
2021/04/26 08:08:08;;;;;;;7.50;2.33;;;6.80;82.10;;;;;;4430834;28;655530;-69
2021/04/26 08:10:55;;;;;;;3.77;1.70;;;6.80;81.50;;;;;;4446471;28;656289;-68
2021/04/26 08:13:42;;;;;;;5.50;2.20;;;6.60;77.20;;;;;;4449563;28;655503;-71
2021/04/26 08:16:30;;;;;;;5.13;2.10;;;6.50;75.00;;;;;;4446568;28;655621;-68
2021/04/26 08:19:17;;;;;;;3.77;2.00;;;6.50;76.10;;;;;;4433325;28;655571;-70
2021/04/26 08:22:04;;;;;;;6.05;2.28;;;6.90;75.10;;;;;;4447827;28;655322;-68
2021/04/26 08:24:51;;;;;;;5.40;2.28;;;6.60;74.70;;;;;;4450221;28;655562;-69
2021/04/26 08:27:38;;;;;;;4.47;2.07;;;6.50;74.00;;;;;;4429847;28;655940;-69
2021/04/26 08:30:26;;;;;;;4.27;2.03;;;6.20;75.50;;;;;;4449997;28;655512;-68
2021/04/26 08:33:14;;;;;;;4.80;2.00;;;5.90;76.20;;;;;;4423272;28;655274;-68
2021/04/26 08:36:01;;;;;;;6.87;1.70;;;6.50;79.10;;;;;;4449610;28;655991;-68
2021/04/26 08:38:48;;;;;;;3.90;1.67;;;7.30;74.20;;;;;;4430274;28;655553;-68
2021/04/26 08:41:35;;;;;;;3.17;1.50;;;7.40;70.90;;;;;;4453091;28;655773;-67
2021/04/26 08:44:22;;;;;;;3.77;1.60;;;7.20;69.90;;;;;;4439329;28;655586;-70
2021/04/26 08:47:09;;;;;;;2.60;1.57;;;7.10;70.20;;;;;;4453323;28;655422;-67
2021/04/26 08:49:58;;;;;;;3.58;1.90;;;7.00;70.80;;;;;;4448742;28;655343;-68
2021/04/26 08:52:45;;;;;;;2.70;1.27;;;7.00;70.10;;;;;;4425831;28;657198;-68
2021/04/26 08:55:32;;;;;;;4.87;1.73;;;6.80;68.80;;;;;;4441475;28;655543;-69
2021/04/26 08:58:19;;;;;;;4.50;1.60;;;6.70;70.80;;;;;;4452450;28;655349;-70
2021/04/26 09:01:06;;;;;;;4.93;1.80;;;7.50;72.30;;;;;;4448315;28;655453;-68
2021/04/26 09:03:53;;;;;;;5.93;1.90;;;7.10;67.70;;;;;;4410748;28;655803;-68
2021/04/26 09:06:55;;;;;;;3.07;1.70;;;6.90;68.70;;;;;;4415352;28;655134;-71
2021/04/26 09:09:43;;;;;;;3.50;1.77;;;6.70;67.80;;;;;;4379971;28;655547;-70
2021/04/26 09:12:30;;;;;;;3.93;1.97;;;6.60;70.00;;;;;;4413591;28;655848;-69
2021/04/26 09:15:17;;;;;;;3.97;1.77;;;7.00;68.90;;;;;;4386865;28;655340;-71
2021/04/26 09:18:04;;;;;;;5.70;1.90;;;7.10;64.80;;;;;;4417082;28;655298;-70
2021/04/26 09:20:51;;;;;;;4.97;1.87;;;7.90;69.00;;;;;;4414288;28;655575;-68
2021/04/26 09:23:39;;;;;;;6.28;1.88;;;7.90;65.00;;;;;;4395043;28;655420;-68
2021/04/26 09:26:27;;;;;;;6.17;1.70;;;7.70;65.90;;;;;;4413232;28;655435;-67
2021/04/26 09:29:16;;;;;;;4.97;1.93;;;7.30;63.20;;;;;;4391204;28;656484;-68
2021/04/26 09:32:05;;;;;;;4.90;1.60;;;7.30;64.80;;;;;;4394390;28;655270;-69
2021/04/26 09:34:53;;;;;;;4.47;2.07;;;7.20;64.80;;;;;;4410635;28;655546;-69
2021/04/26 09:37:40;;;;;;;3.75;1.85;;;7.40;66.00;;;;;;4404325;28;656040;-69
2021/04/26 09:40:28;;;;;;;4.15;1.80;;;8.00;64.60;;;;;;4393387;28;655489;-70
2021/04/26 09:43:20;;;;;;;7.82;1.48;;;7.80;62.90;;;;;;4417381;28;655965;-67
2021/04/26 09:46:07;;;;;;;5.32;1.23;;;7.60;62.50;;;;;;4371762;28;655823;-69
2021/04/26 09:48:54;;;;;;;4.00;1.33;;;7.20;61.60;;;;;;4417646;28;655478;-68
2021/04/26 09:51:42;;;;;;;4.83;1.53;;;7.10;63.10;;;;;;4425252;28;655926;-68
2021/04/26 09:54:34;;;;;;;3.50;1.63;;;7.00;61.80;;;;;;4390339;28;655942;-67
2021/04/26 09:57:22;;;;;;;3.63;1.70;;;6.90;64.80;;;;;;4390191;28;655808;-67
2021/04/26 10:00:11;;;;;;;5.80;1.73;;;7.60;65.80;;;;;;4389742;28;655609;-67
2021/04/26 10:02:58;;;;;;;5.53;2.10;;;8.40;65.90;;;;;;4389831;28;655471;-69
2021/04/26 10:05:46;;;;;;;5.47;1.90;;;8.60;60.40;;;;;;4439076;28;655823;-68
2021/04/26 10:08:33;;;;;;;3.70;1.40;;;8.00;58.90;;;;;;4427824;28;655388;-68
2021/04/26 10:11:20;;;;;;;4.53;1.70;;;8.10;63.30;;;;;;4439236;28;655982;-68
2021/04/26 10:14:17;;;;;;;2.97;1.90;;;8.40;59.90;;;;;;4418301;28;655527;-69
2021/04/26 10:17:06;;;;;;;3.53;1.60;;;8.20;58.60;;;;;;4414926;28;656406;-70
2021/04/26 10:19:53;;;;;;;2.95;1.65;;;7.90;58.70;;;;;;4410738;28;655474;-68
2021/04/26 10:22:42;;;;;;;3.17;1.90;;;7.90;58.10;;;;;;4433620;28;656298;-68
2021/04/26 10:25:38;;;;;;;7.43;2.07;;;8.40;58.80;;;;;;4424283;28;655861;-69
2021/04/26 10:28:30;;;;;;;4.07;1.77;;;9.10;58.60;;;;;;4410558;28;656028;-68
2021/04/26 10:31:19;;;;;;;3.63;1.90;;;9.30;54.90;;;;;;4435758;28;655459;-70
2021/04/26 10:34:07;;;;;;;7.83;2.10;;;9.50;54.80;;;;;;4441680;28;655094;-68
2021/04/26 10:36:56;;;;;;;4.40;2.10;;;9.10;56.00;;;;;;4427631;28;656403;-67
2021/04/26 10:40:03;;;;;;;5.60;2.23;;;8.80;56.80;;;;;;4406656;28;656149;-69
2021/04/26 10:42:51;;;;;;;3.00;1.50;;;8.30;56.90;;;;;;4409812;28;656173;-68
2021/04/26 10:45:37;;;;;;;7.77;2.47;;;7.80;57.50;;;;;;4414221;28;656211;-68
2021/04/26 10:48:25;;;;;;;3.03;1.70;;;8.20;60.40;;;;;;4441077;28;656309;-70
2021/04/26 10:51:21;;;;;;;6.53;2.00;;;8.90;58.80;;;;;;4415814;28;655544;-71
2021/04/26 10:54:08;;;;;;;4.77;2.00;;;8.80;55.10;;;;;;4421516;28;655627;-70
2021/04/26 10:56:55;;;;;;;3.57;2.10;;;8.60;56.50;;;;;;4431177;28;656461;-70
2021/04/26 10:59:42;;;;;;;4.88;2.15;;;8.90;56.20;;;;;;4408861;28;655542;-71
2021/04/26 11:02:33;;;;;;;6.93;2.25;;;9.60;56.50;;;;;;4449879;28;655024;-71
2021/04/26 11:05:22;;;;;;;3.70;2.20;;;9.70;55.00;;;;;;4394005;28;656208;-70
2021/04/26 11:08:30;;;;;;;4.63;1.90;;;9.90;55.20;;;;;;4404261;28;655916;-70
2021/04/26 11:11:19;;;;;;;12.60;2.00;;;9.40;52.30;;;;;;4387493;28;655734;-70
2021/04/26 11:14:06;;;;;;;4.53;2.20;;;9.10;53.00;;;;;;4449327;28;656917;-70
2021/04/26 11:16:58;;;;;;;5.17;2.03;;;9.10;56.90;;;;;;4422297;28;655682;-70
2021/04/26 11:20:06;;;;;;;3.50;1.83;;;9.90;58.00;;;;;;4413187;28;656152;-71
2021/04/26 11:22:57;;;;;;;11.03;2.20;;;10.30;54.00;;;;;;4377221;28;656098;-70
2021/04/26 11:25:44;;;;;;;8.53;2.00;;;10.20;53.00;;;;;;4411754;28;657706;-70
2021/04/26 11:28:39;;;;;;;4.77;1.73;;;9.80;49.60;;;;;;4431630;28;657347;-70
2021/04/26 11:32:00;;;;;;;3.77;1.77;;;10.20;52.30;;;;;;4403749;28;655526;-70
2021/04/26 11:35:07;;;;;;;4.73;1.80;;;10.60;54.10;;;;;;4429480;28;656498;-73
2021/04/26 11:37:55;;;;;;;2.92;1.55;;;10.70;51.10;;;;;;4430290;28;656772;-71
2021/04/26 11:40:42;;;;;;;6.20;2.33;;;10.30;50.80;;;;;;4427324;28;656966;-71
2021/04/26 11:43:29;;;;;;;3.38;2.20;;;10.20;51.00;;;;;;4435638;28;657428;-70
2021/04/26 11:46:24;;;;;;;4.50;2.00;;;10.10;51.40;;;;;;4425546;28;656925;-70
2021/04/26 11:49:19;;;;;;;4.53;1.93;;;10.70;51.10;;;;;;4422642;28;656651;-71
2021/04/26 11:52:11;;;;;;;3.33;1.80;;;11.00;48.00;;;;;;4410724;28;656826;-71
2021/04/26 11:55:16;;;;;;;4.53;2.20;;;11.00;49.20;;;;;;4398158;28;656869;-71
2021/04/26 11:58:03;;;;;;;8.53;2.67;;;10.90;48.50;;;;;;4403315;28;656765;-71
2021/04/26 12:00:50;;;;;;;6.40;2.30;;;11.50;52.70;;;;;;4429459;28;656564;-70
2021/04/26 12:03:51;;;;;;;6.68;2.70;;;12.20;52.70;;;;;;4415441;28;656567;-73
2021/04/26 12:06:42;;;;;;;2.83;2.07;;;12.00;49.10;;;;;;4376266;28;657378;-70
2021/04/26 12:09:30;;;;;;;5.67;2.30;;;11.20;45.70;;;;;;4412368;28;657133;-71
2021/04/26 12:12:21;;;;;;;5.00;2.10;;;10.20;47.40;;;;;;4421771;28;656568;-72
2021/04/26 12:15:09;;;;;;;4.93;2.20;;;9.60;49.60;;;;;;4406005;28;657169;-71
2021/04/26 12:17:57;;;;;;;4.57;1.90;;;9.40;50.30;;;;;;4431665;28;655748;-71
2021/04/26 12:20:44;;;;;;;4.23;2.07;;;9.20;49.70;;;;;;4414907;28;656292;-70
2021/04/26 12:23:35;;;;;;;8.50;2.10;;;8.90;50.60;;;;;;4436338;28;656860;-70
2021/04/26 12:26:23;;;;;;;4.70;1.97;;;9.20;53.00;;;;;;4402942;28;656059;-70
2021/04/26 12:29:14;;;;;;;4.37;2.27;;;9.20;49.80;;;;;;4449681;28;656899;-70
2021/04/26 12:32:15;;;;;;;6.00;2.15;;;9.20;49.20;;;;;;4426475;28;655647;-70
2021/04/26 12:35:04;;;;;;;5.40;2.20;;;9.20;50.20;;;;;;4411936;28;655787;-72
2021/04/26 12:37:51;;;;;;;4.60;2.00;;;9.30;49.40;;;;;;4443516;28;655764;-69
2021/04/26 12:40:38;;;;;;;9.67;2.20;;;9.60;48.50;;;;;;4430328;28;655631;-70
2021/04/26 12:43:31;;;;;;;7.30;2.30;;;10.00;49.80;;;;;;4447015;28;655613;-70
2021/04/26 12:46:18;;;;;;;7.67;1.97;;;10.70;49.20;;;;;;4407164;28;657007;-71
2021/04/26 12:49:16;;;;;;;4.60;2.10;;;11.10;49.40;;;;;;4448434;28;656887;-71
2021/04/26 12:52:12;;;;;;;6.83;2.07;;;10.90;45.90;;;;;;4396563;28;657048;-71
2021/04/26 12:55:03;;;;;;;5.10;1.73;;;10.40;47.00;;;;;;4417368;28;656631;-72
2021/04/26 12:57:52;;;;;;;7.13;1.93;;;10.20;47.30;;;;;;4421206;28;656775;-71
2021/04/26 13:00:41;;;;;;;5.40;1.67;;;10.10;44.40;;;;;;4421785;28;657604;-71
2021/04/26 13:03:33;;;;;;;4.87;1.60;;;9.80;46.10;;;;;;4420048;28;657270;-71
2021/04/26 13:06:21;;;;;;;5.07;2.07;;;9.80;49.60;;;;;;4431062;28;656127;-70
2021/04/26 13:09:09;;;;;;;5.47;1.60;;;9.70;46.40;;;;;;4430662;28;656075;-71
2021/04/26 13:11:57;;;;;;;3.70;1.70;;;9.70;46.70;;;;;;4449377;28;655208;-70
2021/04/26 13:14:44;;;;;;;3.63;1.60;;;9.70;46.70;;;;;;4426505;28;656669;-71
2021/04/26 13:17:35;;;;;;;10.90;1.93;;;10.00;47.20;;;;;;4449721;28;655627;-71
2021/04/26 13:20:26;;;;;;;5.60;1.70;;;10.50;48.80;;;;;;4415497;28;658386;-72
2021/04/26 13:23:21;;;;;;;3.97;1.87;;;10.90;47.30;;;;;;4420642;28;656449;-71
2021/04/26 13:26:24;;;;;;;5.30;1.80;;;11.40;46.20;;;;;;4403988;28;656663;-71
2021/04/26 13:29:14;;;;;;;8.33;2.60;;;11.30;44.60;;;;;;4424719;28;656421;-71
2021/04/26 13:32:02;;;;;;;6.30;2.07;;;11.10;44.90;;;;;;4416886;28;656618;-70
2021/04/26 13:34:51;;;;;;;6.70;2.27;;;11.00;44.80;;;;;;4406005;28;656895;-70
2021/04/26 13:37:39;;;;;;;6.70;2.30;;;10.70;44.40;;;;;;4414285;28;656816;-70
2021/04/26 13:40:26;;;;;;;5.27;1.87;;;10.30;46.20;;;;;;4451829;28;655836;-70
2021/04/26 13:43:14;;;;;;;5.80;1.75;;;10.70;44.60;;;;;;4419414;28;656940;-71
2021/04/26 13:46:01;;;;;;;6.57;1.87;;;10.60;43.80;;;;;;4436192;28;656253;-71
2021/04/26 13:48:48;;;;;;;3.03;1.63;;;10.70;45.00;;;;;;4428843;28;656529;-70
2021/04/26 13:51:35;;;;;;;7.60;1.75;;;10.80;44.10;;;;;;4451833;28;657011;-70
2021/04/26 13:54:23;;;;;;;4.33;2.00;;;11.40;46.50;;;;;;4419812;28;656791;-72
2021/04/26 13:57:12;;;;;;;8.47;1.93;;;11.90;46.10;;;;;;4451011;28;656745;-71
2021/04/26 13:59:59;;;;;;;4.20;1.90;;;12.50;44.20;;;;;;4432496;28;656492;-70
2021/04/26 14:02:46;;;;;;;5.97;1.90;;;12.10;42.00;;;;;;4446776;28;656270;-70
2021/04/26 14:05:33;;;;;;;8.63;2.30;;;12.20;41.80;;;;;;4432225;28;656705;-71
2021/04/26 14:08:20;;;;;;;6.37;2.20;;;11.90;42.20;;;;;;4450538;28;656288;-70
2021/04/26 14:11:08;;;;;;;4.03;1.93;;;11.60;43.60;;;;;;4433226;28;656215;-72
2021/04/26 14:13:56;;;;;;;5.23;2.17;;;11.80;43.30;;;;;;4455143;28;657040;-71
2021/04/26 14:16:44;;;;;;;3.73;1.87;;;12.20;43.80;;;;;;4431397;28;657083;-71
2021/04/26 14:19:31;;;;;;;5.07;1.87;;;12.30;41.00;;;;;;4452091;28;656049;-71
2021/04/26 14:22:19;;;;;;;5.67;2.30;;;12.20;40.80;;;;;;4427023;28;656944;-71